createdAt,value
2019-06-10T00:02:18.190Z,99357.31
2019-06-10T00:08:22.716Z,99351.92
2019-06-10T00:14:27.342Z,99347.38
2019-06-10T00:20:31.903Z,99346.41
2019-06-10T00:26:36.535Z,99335.85
2019-06-10T00:32:41.297Z,99328.88
2019-06-10T00:38:46.035Z,99310.55
2019-06-10T00:44:50.931Z,99310.27
2019-06-10T00:50:55.655Z,99304.44
2019-06-10T00:57:01.154Z,99298.08
2019-06-10T01:03:08.050Z,99293.40
2019-06-10T01:09:14.819Z,99297.92
2019-06-10T01:15:21.724Z,99283.17
2019-06-10T01:21:25.664Z,99284.87
2019-06-10T01:27:31.509Z,99290.25
2019-06-10T01:33:36.161Z,99279.05
2019-06-10T01:39:43.411Z,99275.48
2019-06-10T01:45:48.200Z,99257.06
2019-06-10T01:51:52.826Z,99252.63
2019-06-10T01:57:57.389Z,99249.44
2019-06-10T02:04:01.973Z,99253.20
2019-06-10T02:10:13.831Z,99234.57
2019-06-10T02:16:19.030Z,99228.88
2019-06-10T02:22:24.553Z,99214.73
2019-06-10T02:28:31.882Z,99223.13
2019-06-10T02:34:42.834Z,99219.45
2019-06-10T02:40:45.584Z,99203.75
2019-06-10T02:46:50.171Z,99197.13
2019-06-10T02:52:54.718Z,99188.34
2019-06-10T02:58:59.281Z,99182.33
2019-06-10T03:05:04.793Z,99176.92
2019-06-10T03:11:09.536Z,99170.75
2019-06-10T03:17:19.824Z,99173.34
2019-06-10T03:23:26.411Z,99157.06
2019-06-10T03:29:32.769Z,99153.31
2019-06-10T03:35:37.106Z,99153.25
2019-06-10T03:41:42.381Z,99168.56
2019-06-10T03:47:47.100Z,99168.31
2019-06-10T03:53:53.143Z,99171.77
2019-06-10T03:59:57.867Z,99195.70
2019-06-10T04:06:05.659Z,99201.08
2019-06-10T04:12:12.572Z,99198.83
2019-06-10T04:18:17.813Z,99183.91
2019-06-10T04:24:25.429Z,99168.70
2019-06-10T04:30:32.532Z,99154.77
2019-06-10T04:36:37.226Z,99139.27
2019-06-10T04:42:44.719Z,99140.74
2019-06-10T04:48:49.275Z,99123.87
2019-06-10T04:54:53.925Z,99112.00
2019-06-10T05:00:58.533Z,99110.44
2019-06-10T05:07:03.147Z,99114.58
2019-06-10T05:13:08.171Z,99120.55
2019-06-10T05:19:13.072Z,99113.47
2019-06-10T05:25:17.721Z,99116.35
2019-06-10T05:31:25.197Z,99120.08
2019-06-10T05:37:29.328Z,99125.00
2019-06-10T05:43:34.638Z,99115.14
2019-06-10T05:49:39.314Z,99127.89
2019-06-10T05:55:43.884Z,99115.38
2019-06-10T06:01:53.662Z,99111.27
2019-06-10T06:08:05.647Z,99102.80
2019-06-10T06:14:07.418Z,99108.59
2019-06-10T06:20:13.326Z,99103.66
2019-06-10T06:26:18.119Z,99104.59
2019-06-10T06:32:23.586Z,99104.06
2019-06-10T06:38:28.810Z,99104.05
2019-06-10T06:44:38.154Z,99095.74
2019-06-10T06:51:00.306Z,99091.25
2019-06-10T06:56:49.427Z,99085.33
2019-06-10T07:02:54.053Z,99094.72
2019-06-10T07:09:04.596Z,99091.86
2019-06-10T07:15:09.146Z,99090.36
2019-06-10T07:21:16.594Z,99085.38
2019-06-10T07:27:22.579Z,99084.01
2019-06-10T07:33:27.343Z,99076.02
2019-06-10T07:39:34.663Z,99084.73
2019-06-10T07:45:39.481Z,99088.16
2019-06-10T07:51:46.291Z,99090.73
2019-06-10T07:57:52.916Z,99086.31
2019-06-10T08:03:57.118Z,99087.05
2019-06-10T08:10:02.905Z,99076.59
2019-06-10T08:16:07.719Z,99067.45
2019-06-10T08:22:14.353Z,99064.68
2019-06-10T08:28:22.630Z,99055.67
2019-06-10T08:34:25.982Z,99075.01
2019-06-10T08:40:32.571Z,99069.09
2019-06-10T08:46:37.178Z,99060.84
2019-06-10T08:53:01.460Z,99055.64
2019-06-10T08:58:49.631Z,99050.45
2019-06-10T09:04:54.315Z,99056.56
2019-06-10T09:10:58.896Z,99057.61
2019-06-10T09:17:05.807Z,99048.48
2019-06-10T09:23:21.506Z,99036.94
2019-06-10T09:29:16.782Z,99031.17
2019-06-10T09:35:24.097Z,99029.34
2019-06-10T09:41:40.942Z,99036.85
2019-06-10T09:47:42.594Z,99031.98
2019-06-10T09:53:54.662Z,99049.09
2019-06-10T09:59:56.245Z,99043.01
2019-06-10T10:06:09.921Z,99036.91
2019-06-10T10:12:05.782Z,99026.14
2019-06-10T10:18:14.035Z,99022.53
2019-06-10T10:24:18.777Z,99025.09
2019-06-10T10:30:33.250Z,99016.34
2019-06-10T10:36:37.345Z,99011.28
2019-06-10T10:42:51.377Z,99011.16
2019-06-10T10:48:53.360Z,99011.20
2019-06-10T10:54:57.627Z,98999.28
2019-06-10T11:01:04.046Z,98995.56
2019-06-10T11:07:08.702Z,98980.92
2019-06-10T11:13:13.794Z,98983.66
2019-06-10T11:19:18.438Z,98976.65
2019-06-10T11:25:23.243Z,98981.74
2019-06-10T11:31:27.933Z,98977.92
2019-06-10T11:37:32.482Z,98980.51
2019-06-10T11:43:42.965Z,98963.23
2019-06-10T11:49:53.243Z,98970.49
2019-06-10T11:55:58.509Z,98951.89
2019-06-10T12:02:05.999Z,98944.59
2019-06-10T12:08:13.082Z,98942.03
2019-06-10T12:14:26.803Z,98937.52
2019-06-10T12:20:28.701Z,98938.67
2019-06-10T12:26:33.660Z,98921.33
2019-06-10T12:32:42.410Z,98903.17
2019-06-10T12:38:47.511Z,98885.19
2019-06-10T12:44:54.523Z,98890.09
2019-06-10T12:51:01.719Z,98884.09
2019-06-10T12:57:06.883Z,98877.94
2019-06-10T13:03:13.773Z,98872.54
2019-06-10T13:09:24.438Z,98875.59
2019-06-10T13:15:29.271Z,98856.89
2019-06-10T13:21:33.820Z,98853.72
2019-06-10T13:27:42.812Z,98838.56
2019-06-10T13:33:52.918Z,98834.89
2019-06-10T13:39:57.676Z,98832.33
2019-06-10T13:46:03.134Z,98818.66
2019-06-10T13:52:12.954Z,98819.23
2019-06-10T13:58:14.881Z,98811.15
2019-06-10T14:04:24.820Z,98810.77
2019-06-10T14:10:25.714Z,98797.37
2019-06-10T14:16:34.031Z,98797.72
2019-06-10T14:22:38.626Z,98821.12
2019-06-10T14:28:44.419Z,98819.10
2019-06-10T14:34:49.376Z,98817.00
2019-06-10T14:40:53.924Z,98811.95
2019-06-10T14:46:58.580Z,98809.41
2019-06-10T14:53:03.179Z,98823.12
2019-06-10T14:59:07.760Z,98830.93
2019-06-10T15:05:15.658Z,98810.70
2019-06-10T15:11:20.132Z,98813.27
2019-06-10T15:17:25.438Z,98806.30
2019-06-10T15:23:32.275Z,98813.34
2019-06-10T15:29:36.396Z,98794.22
2019-06-10T15:35:42.767Z,98795.16
2019-06-10T15:41:47.266Z,98797.77
2019-06-10T15:47:53.139Z,98798.98
2019-06-10T15:53:57.845Z,98793.55
2019-06-10T16:00:16.182Z,98776.19
2019-06-10T16:06:13.904Z,98786.69
2019-06-10T16:12:19.964Z,98794.09
2019-06-10T16:18:29.497Z,98807.98
2019-06-10T16:24:34.136Z,98808.16
2019-06-10T16:30:38.688Z,98794.82
2019-06-10T16:36:43.268Z,98792.40
2019-06-10T16:42:47.847Z,98796.06
2019-06-10T16:48:52.856Z,98785.16
2019-06-10T16:54:57.506Z,98790.00
2019-06-10T17:01:03.859Z,98784.97
2019-06-10T17:07:08.945Z,98784.02
2019-06-10T17:13:15.305Z,98790.06
2019-06-10T17:19:21.257Z,98784.14
2019-06-10T17:25:26.926Z,98790.20
2019-06-10T17:31:35.025Z,98783.82
2019-06-10T17:37:38.674Z,98785.75
2019-06-10T17:43:43.239Z,98787.45
2019-06-10T17:49:47.784Z,98786.27
2019-06-10T17:55:52.408Z,98785.89
2019-06-10T18:01:56.974Z,98782.60
2019-06-10T18:08:02.330Z,98775.97
2019-06-10T18:14:07.245Z,98769.41
2019-06-10T18:20:13.589Z,98767.98
2019-06-10T18:26:18.311Z,98760.48
2019-06-10T18:32:22.948Z,98779.70
2019-06-10T18:38:27.543Z,98773.35
2019-06-10T18:44:33.931Z,98769.72
2019-06-10T18:50:39.623Z,98783.84
2019-06-10T18:56:46.755Z,98771.80
2019-06-10T19:03:08.763Z,98763.97
2019-06-10T19:08:57.638Z,98754.59
2019-06-10T19:15:02.741Z,98762.48
2019-06-10T19:21:08.780Z,98748.19
2019-06-10T19:27:13.804Z,98741.18
2019-06-10T19:33:18.410Z,98749.88
2019-06-10T19:39:23.044Z,98762.73
2019-06-10T19:45:27.660Z,98757.25
2019-06-10T19:51:32.898Z,98755.72
2019-06-10T19:57:39.462Z,98751.59
2019-06-10T20:03:46.747Z,98757.17
2019-06-10T20:09:52.231Z,98772.73
2019-06-10T20:15:56.906Z,98775.21
2019-06-10T20:22:01.606Z,98771.10
2019-06-10T20:28:06.466Z,98774.09
2019-06-10T20:34:13.285Z,98769.80
2019-06-10T20:40:18.279Z,98764.38
2019-06-10T20:46:23.542Z,98749.67
2019-06-10T20:52:28.258Z,98758.68
2019-06-10T20:58:33.232Z,98758.39
2019-06-10T21:04:39.042Z,98759.45
2019-06-10T21:10:46.139Z,98743.64
2019-06-10T21:16:54.361Z,98743.89
2019-06-10T21:22:58.971Z,98739.25
2019-06-10T21:29:03.957Z,98733.58
2019-06-10T21:35:08.710Z,98727.80
2019-06-10T21:41:13.337Z,98718.88
2019-06-10T21:47:17.962Z,98697.14
2019-06-10T21:53:22.739Z,98680.33
2019-06-10T21:59:27.284Z,98679.51
2019-06-10T22:05:33.116Z,98675.97
2019-06-10T22:11:37.875Z,98677.88
2019-06-10T22:17:42.675Z,98688.19
2019-06-10T22:23:47.306Z,98709.95
2019-06-10T22:29:54.285Z,98721.27
2019-06-10T22:35:58.250Z,98725.29
2019-06-10T22:42:03.259Z,98766.86
2019-06-10T22:48:07.837Z,98775.48
2019-06-10T22:54:12.410Z,98779.95
2019-06-10T23:00:17.660Z,98796.42
2019-06-10T23:06:23.249Z,98824.84
2019-06-10T23:12:29.658Z,98812.00
2019-06-10T23:18:34.205Z,98827.49
2019-06-10T23:24:43.630Z,98817.73
2019-06-10T23:30:48.254Z,98821.59
2019-06-10T23:36:54.843Z,98814.99
2019-06-10T23:42:59.122Z,98807.04
2019-06-10T23:49:07.115Z,98803.47
2019-06-10T23:55:13.110Z,98790.95
